createdAt,value
2018-09-23T00:00:52.188Z,7.53
2018-09-23T00:03:21.059Z,8.13
2018-09-23T00:05:50.012Z,6.50
2018-09-23T00:08:18.546Z,9.53
2018-09-23T00:10:47.599Z,9.30
2018-09-23T00:13:16.469Z,7.17
2018-09-23T00:15:45.275Z,9.17
2018-09-23T00:18:13.880Z,7.23
2018-09-23T00:20:42.525Z,7.13
2018-09-23T00:23:11.286Z,8.13
2018-09-23T00:25:40.106Z,9.13
2018-09-23T00:28:08.676Z,8.10
2018-09-23T00:30:37.331Z,9.23
2018-09-23T00:33:05.974Z,9.60
2018-09-23T00:35:35.109Z,8.40
2018-09-23T00:38:03.756Z,8.43
2018-09-23T00:40:32.312Z,12.00
2018-09-23T00:43:01.474Z,7.40
2018-09-23T00:45:30.325Z,7.60
2018-09-23T00:48:01.333Z,10.07
2018-09-23T00:50:31.067Z,8.00
2018-09-23T00:53:00.365Z,10.30
2018-09-23T00:55:30.078Z,10.70
2018-09-23T00:57:59.743Z,10.70
2018-09-23T01:00:29.732Z,12.77
2018-09-23T01:02:59.214Z,10.67
2018-09-23T01:05:28.142Z,11.37
2018-09-23T01:07:57.485Z,11.00
2018-09-23T01:10:27.157Z,13.47
2018-09-23T01:12:56.317Z,10.93
2018-09-23T01:15:25.824Z,9.40
2018-09-23T01:17:54.552Z,11.37
2018-09-23T01:20:23.745Z,9.93
2018-09-23T01:22:52.435Z,9.50
2018-09-23T01:25:21.007Z,8.80
2018-09-23T01:27:50.153Z,9.27
2018-09-23T01:30:18.783Z,11.53
2018-09-23T01:32:47.362Z,12.33
2018-09-23T01:35:16.209Z,10.50
2018-09-23T01:37:44.775Z,10.93
2018-09-23T01:40:13.964Z,11.93
2018-09-23T01:42:42.807Z,9.80
2018-09-23T01:45:11.438Z,11.93
2018-09-23T01:47:40.298Z,11.30
2018-09-23T01:50:09.257Z,9.97
2018-09-23T01:52:38.209Z,9.87
2018-09-23T01:55:06.772Z,11.73
2018-09-23T01:57:35.856Z,11.30
2018-09-23T02:00:05.091Z,8.70
2018-09-23T02:02:33.772Z,11.30
2018-09-23T02:05:02.366Z,10.23
2018-09-23T02:07:31.037Z,12.07
2018-09-23T02:09:59.657Z,11.87
2018-09-23T02:12:28.388Z,12.93
2018-09-23T02:14:56.932Z,10.83
2018-09-23T02:17:25.532Z,11.90
2018-09-23T02:19:54.161Z,10.23
2018-09-23T02:22:22.760Z,11.10
2018-09-23T02:24:51.638Z,8.10
2018-09-23T02:27:20.223Z,9.43
2018-09-23T02:29:49.221Z,9.00
2018-09-23T02:32:18.528Z,8.17
2018-09-23T02:34:47.117Z,9.23
2018-09-23T02:37:15.654Z,8.93
2018-09-23T02:39:44.195Z,10.90
2018-09-23T02:42:12.825Z,11.03
2018-09-23T02:44:42.059Z,10.47
2018-09-23T02:47:10.845Z,11.00
2018-09-23T02:49:39.836Z,11.03
2018-09-23T02:52:08.392Z,10.07
2018-09-23T02:54:36.966Z,11.00
2018-09-23T02:57:05.845Z,8.43
2018-09-23T02:59:34.413Z,9.83
2018-09-23T03:02:03.085Z,13.03
2018-09-23T03:04:31.740Z,10.93
2018-09-23T03:07:01.096Z,8.90
2018-09-23T03:09:29.665Z,11.93
2018-09-23T03:11:58.386Z,10.07
2018-09-23T03:14:27.316Z,8.60
2018-09-23T03:16:56.093Z,8.37
2018-09-23T03:19:25.454Z,9.73
2018-09-23T03:21:54.189Z,9.40
2018-09-23T03:24:23.120Z,10.77
2018-09-23T03:26:52.021Z,8.93
2018-09-23T03:29:20.525Z,11.57
2018-09-23T03:31:49.695Z,8.33
2018-09-23T03:34:18.254Z,9.27
2018-09-23T03:36:47.134Z,10.37
2018-09-23T03:39:15.626Z,10.17
2018-09-23T03:41:44.156Z,8.97
2018-09-23T03:44:12.691Z,6.97
2018-09-23T03:46:41.848Z,7.53
2018-09-23T03:49:11.168Z,7.43
2018-09-23T03:51:40.410Z,6.60
2018-09-23T03:54:11.365Z,7.07
2018-09-23T03:56:41.109Z,6.07
2018-09-23T03:59:09.882Z,5.23
2018-09-23T04:01:39.092Z,4.47
2018-09-23T04:04:08.907Z,4.00
2018-09-23T04:06:37.527Z,5.33
2018-09-23T04:09:07.177Z,4.30
2018-09-23T04:11:36.047Z,4.80
2018-09-23T04:14:04.685Z,4.00
2018-09-23T04:16:33.664Z,4.03
2018-09-23T04:19:02.142Z,4.63
2018-09-23T04:21:30.719Z,3.57
2018-09-23T04:23:59.272Z,3.43
2018-09-23T04:26:27.854Z,5.17
2018-09-23T04:28:56.431Z,3.90
2018-09-23T04:31:26.100Z,4.63
2018-09-23T04:33:55.374Z,3.50
2018-09-23T04:36:24.363Z,5.47
2018-09-23T04:38:52.935Z,3.47
2018-09-23T04:41:21.515Z,2.77
2018-09-23T04:43:50.031Z,3.93
2018-09-23T04:46:18.921Z,4.03
2018-09-23T04:48:47.543Z,3.43
2018-09-23T04:51:16.128Z,3.43
2018-09-23T04:53:44.856Z,5.33
2018-09-23T04:56:13.873Z,3.90
2018-09-23T04:58:42.430Z,3.20
2018-09-23T05:01:11.672Z,3.40
2018-09-23T05:03:40.208Z,3.07
2018-09-23T05:06:09.225Z,3.40
2018-09-23T05:08:38.080Z,3.60
2018-09-23T05:11:06.764Z,4.87
2018-09-23T05:13:35.400Z,3.87
2018-09-23T05:16:04.490Z,3.67
2018-09-23T05:18:33.284Z,3.47
2018-09-23T05:21:02.234Z,4.40
2018-09-23T05:23:30.764Z,3.40
2018-09-23T05:26:00.420Z,3.87
2018-09-23T05:28:29.289Z,3.73
2018-09-23T05:30:58.506Z,3.40
2018-09-23T05:33:27.144Z,3.30
2018-09-23T05:35:56.217Z,4.00
2018-09-23T05:38:24.782Z,4.33
2018-09-23T05:40:53.471Z,3.07
2018-09-23T05:43:22.063Z,3.40
2018-09-23T05:45:50.846Z,2.90
2018-09-23T05:48:20.788Z,3.50
2018-09-23T05:50:51.237Z,2.97
2018-09-23T05:53:19.774Z,4.50
2018-09-23T05:55:48.296Z,3.00
2018-09-23T05:58:16.925Z,3.43
2018-09-23T06:00:48.122Z,3.40
2018-09-23T06:03:19.809Z,3.50
2018-09-23T06:05:48.361Z,3.10
2018-09-23T06:08:17.104Z,4.03
2018-09-23T06:10:45.735Z,3.00
2018-09-23T06:13:14.334Z,4.03
2018-09-23T06:15:43.212Z,2.57
2018-09-23T06:18:12.027Z,3.67
2018-09-23T06:20:40.945Z,3.60
2018-09-23T06:23:09.442Z,3.10
2018-09-23T06:25:38.577Z,3.77
2018-09-23T06:28:07.285Z,3.70
2018-09-23T06:33:00.755Z,5.27
2018-09-23T06:35:29.691Z,5.87
2018-09-23T06:37:58.797Z,5.83
2018-09-23T06:40:28.959Z,4.27
2018-09-23T06:42:57.706Z,3.63
2018-09-23T06:45:26.702Z,3.60
2018-09-23T06:47:56.864Z,3.30
2018-09-23T06:50:26.498Z,2.70
2018-09-23T06:52:55.491Z,4.57
2018-09-23T06:55:24.503Z,2.60
2018-09-23T06:57:53.794Z,2.87
2018-09-23T07:00:23.647Z,3.63
2018-09-23T07:02:53.490Z,3.30
2018-09-23T07:05:22.411Z,3.30
2018-09-23T07:07:51.149Z,3.23
2018-09-23T07:10:19.775Z,2.53
2018-09-23T07:12:48.570Z,3.17
2018-09-23T07:15:17.461Z,3.40
2018-09-23T07:17:46.097Z,2.77
2018-09-23T07:20:14.948Z,2.60
2018-09-23T07:22:43.915Z,2.80
2018-09-23T07:25:12.480Z,2.97
2018-09-23T07:27:41.531Z,4.30
2018-09-23T07:30:10.697Z,2.37
2018-09-23T07:32:40.351Z,2.40
2018-09-23T07:35:08.948Z,2.37
2018-09-23T07:37:38.075Z,3.60
2018-09-23T07:40:07.054Z,2.40
2018-09-23T07:42:35.599Z,2.30
2018-09-23T07:45:04.352Z,2.57
2018-09-23T07:47:33.680Z,2.60
2018-09-23T07:50:02.294Z,1.77
2018-09-23T07:52:30.923Z,2.00
2018-09-23T07:54:59.575Z,3.10
2018-09-23T07:57:28.172Z,2.23
2018-09-23T07:59:57.237Z,1.73
2018-09-23T08:02:26.423Z,2.03
2018-09-23T08:04:55.071Z,1.77
2018-09-23T08:07:23.629Z,2.60
2018-09-23T08:09:52.213Z,2.13
2018-09-23T08:12:20.903Z,1.83
2018-09-23T08:14:50.156Z,1.70
2018-09-23T08:17:18.461Z,1.43
2018-09-23T08:19:47.364Z,1.03
2018-09-23T08:22:15.912Z,1.33
2018-09-23T08:24:44.557Z,1.30
2018-09-23T08:27:13.084Z,2.13
2018-09-23T08:29:41.661Z,2.47
2018-09-23T08:32:10.280Z,1.60
2018-09-23T08:34:39.607Z,1.23
2018-09-23T08:37:08.684Z,0.50
2018-09-23T08:39:37.264Z,0.93
2018-09-23T08:42:05.838Z,0.60
2018-09-23T08:44:34.439Z,0.97
2018-09-23T08:47:03.059Z,1.27
2018-09-23T08:49:31.694Z,0.73
2018-09-23T08:52:00.359Z,1.00
2018-09-23T08:54:29.740Z,1.17
2018-09-23T08:56:58.743Z,1.30
2018-09-23T08:59:27.323Z,1.57
2018-09-23T09:01:56.010Z,1.10
2018-09-23T09:04:24.864Z,1.20
2018-09-23T09:06:54.772Z,1.07
2018-09-23T09:09:23.802Z,0.60
2018-09-23T09:11:52.420Z,0.60
2018-09-23T09:14:21.252Z,0.70
2018-09-23T09:16:49.981Z,3.13
2018-09-23T09:19:18.538Z,1.40
2018-09-23T09:21:47.067Z,0.97
2018-09-23T09:24:15.721Z,0.83
2018-09-23T09:26:44.458Z,0.80
2018-09-23T09:29:13.044Z,0.57
2018-09-23T09:31:42.148Z,0.97
2018-09-23T09:34:10.709Z,0.70
2018-09-23T09:36:40.185Z,0.73
2018-09-23T09:39:10.164Z,0.80
2018-09-23T09:41:39.544Z,1.17
2018-09-23T09:44:08.260Z,0.87
2018-09-23T09:46:37.489Z,1.60
2018-09-23T09:49:06.443Z,1.47
2018-09-23T09:51:35.364Z,0.90
2018-09-23T09:54:04.873Z,0.77
2018-09-23T10:00:34.364Z,0.60
2018-09-23T10:03:04.157Z,0.80
2018-09-23T10:05:33.092Z,0.50
2018-09-23T10:08:01.749Z,0.80
2018-09-23T10:10:30.623Z,0.80
2018-09-23T10:12:59.567Z,0.90
2018-09-23T10:15:29.348Z,1.13
2018-09-23T10:18:02.157Z,0.83
2018-09-23T10:20:30.924Z,1.73
2018-09-23T10:23:00.192Z,1.27
2018-09-23T10:25:28.799Z,1.20
2018-09-23T10:27:58.831Z,0.80
2018-09-23T10:30:29.031Z,1.13
2018-09-23T10:32:57.848Z,1.40
2018-09-23T10:35:26.978Z,1.10
2018-09-23T10:37:55.618Z,0.73
2018-09-23T10:40:25.047Z,1.10
2018-09-23T10:42:55.129Z,1.50
2018-09-23T10:45:24.785Z,1.10
2018-09-23T10:47:54.070Z,0.90
2018-09-23T10:50:24.991Z,0.87
2018-09-23T10:52:54.939Z,1.90
2018-09-23T10:55:24.530Z,1.53
2018-09-23T10:57:54.197Z,1.33
2018-09-23T11:00:23.750Z,1.10
2018-09-23T11:02:52.550Z,0.93
2018-09-23T11:05:22.576Z,0.90
2018-09-23T11:07:51.912Z,1.00
2018-09-23T11:10:20.895Z,1.13
2018-09-23T11:12:50.830Z,1.47
2018-09-23T11:15:20.128Z,1.93
2018-09-23T11:17:48.622Z,1.40
2018-09-23T11:20:18.826Z,5.03
2018-09-23T11:22:48.903Z,2.83
2018-09-23T11:25:17.688Z,2.40
2018-09-23T11:27:47.542Z,1.80
2018-09-23T11:30:17.029Z,2.60
2018-09-23T11:32:46.314Z,1.10
2018-09-23T11:35:15.932Z,1.73
2018-09-23T11:37:45.342Z,1.40
2018-09-23T11:40:15.115Z,1.97
2018-09-23T11:42:45.044Z,1.47
2018-09-23T11:45:15.516Z,1.33
2018-09-23T11:47:45.075Z,1.07
2018-09-23T11:50:14.461Z,1.77
2018-09-23T11:52:44.231Z,1.80
2018-09-23T11:55:14.490Z,2.10
2018-09-23T11:57:45.118Z,2.80
2018-09-23T12:00:15.686Z,1.27
2018-09-23T12:02:45.621Z,2.20
2018-09-23T12:05:15.266Z,0.87
2018-09-23T12:07:44.974Z,0.80
2018-09-23T12:10:15.040Z,1.00
2018-09-23T12:12:43.645Z,0.93
2018-09-23T12:15:13.210Z,0.63
2018-09-23T12:17:43.673Z,0.70
2018-09-23T12:20:13.617Z,0.93
2018-09-23T12:22:43.916Z,1.43
2018-09-23T12:25:13.662Z,1.93
2018-09-23T12:27:43.675Z,1.60
2018-09-23T12:30:13.792Z,0.40
2018-09-23T12:32:43.085Z,0.60
2018-09-23T12:35:13.046Z,0.87
2018-09-23T12:37:42.558Z,0.70
2018-09-23T12:40:12.753Z,0.43
2018-09-23T12:42:43.638Z,0.50
2018-09-23T12:45:12.949Z,1.70
2018-09-23T12:47:41.541Z,0.47
2018-09-23T12:50:11.538Z,1.00
2018-09-23T12:52:41.236Z,1.90
2018-09-23T12:55:10.163Z,1.23
2018-09-23T12:57:40.606Z,0.50
2018-09-23T13:00:10.582Z,1.00
2018-09-23T13:02:41.093Z,0.30
2018-09-23T13:05:10.813Z,0.67
2018-09-23T13:07:40.739Z,0.20
2018-09-23T13:10:10.731Z,1.00
2018-09-23T13:12:41.073Z,0.60
2018-09-23T13:15:11.103Z,2.40
2018-09-23T13:17:41.541Z,0.70
2018-09-23T13:20:11.231Z,1.10
2018-09-23T13:22:41.653Z,1.40
2018-09-23T13:25:12.412Z,1.93
2018-09-23T13:27:42.284Z,2.30
2018-09-23T13:30:11.915Z,1.40
2018-09-23T13:32:42.218Z,1.70
2018-09-23T13:35:12.224Z,1.83
2018-09-23T13:37:42.707Z,3.43
2018-09-23T13:40:13.055Z,0.93
2018-09-23T13:42:42.317Z,1.10
2018-09-23T13:45:12.057Z,0.60
2018-09-23T13:47:42.501Z,0.80
2018-09-23T13:50:12.151Z,0.60
2018-09-23T13:52:40.834Z,1.00
2018-09-23T13:55:10.453Z,2.13
2018-09-23T13:57:39.756Z,1.80
2018-09-23T14:00:10.172Z,1.43
2018-09-23T14:02:45.844Z,1.87
2018-09-23T14:05:16.719Z,1.90
2018-09-23T14:07:46.917Z,1.17
2018-09-23T14:10:16.406Z,1.40
2018-09-23T14:12:45.637Z,1.93
2018-09-23T14:15:14.917Z,1.03
2018-09-23T14:17:43.687Z,0.87
2018-09-23T14:20:12.422Z,0.83
2018-09-23T14:22:41.748Z,0.23
2018-09-23T14:25:10.465Z,0.20
2018-09-23T14:27:40.277Z,1.23
2018-09-23T14:30:08.836Z,0.77
2018-09-23T14:32:39.168Z,0.40
2018-09-23T14:35:08.243Z,0.30
2018-09-23T14:37:38.917Z,0.33
2018-09-23T14:40:09.693Z,0.30
2018-09-23T14:42:40.917Z,0.10
2018-09-23T14:45:10.952Z,0.20
2018-09-23T14:47:40.757Z,0.17
2018-09-23T14:50:11.168Z,0.10
2018-09-23T14:52:40.836Z,0.20
2018-09-23T14:55:12.129Z,0.10
2018-09-23T14:57:41.164Z,0.00
2018-09-23T15:00:12.000Z,0.10
2018-09-23T15:02:40.848Z,0.20
2018-09-23T15:05:12.232Z,0.90
2018-09-23T15:07:42.670Z,0.30
2018-09-23T15:10:14.192Z,0.30
2018-09-23T15:12:43.499Z,0.50
2018-09-23T15:15:13.976Z,0.30
2018-09-23T15:17:43.903Z,1.03
2018-09-23T15:20:13.899Z,0.60
2018-09-23T15:22:44.620Z,0.53
2018-09-23T15:25:17.102Z,0.87
2018-09-23T15:27:47.107Z,0.90
2018-09-23T15:30:19.138Z,0.77
2018-09-23T15:32:49.589Z,2.47
2018-09-23T15:35:21.379Z,1.10
2018-09-23T15:37:52.376Z,0.93
2018-09-23T15:40:21.067Z,1.33
2018-09-23T15:42:49.649Z,4.47
2018-09-23T15:45:18.469Z,1.00
2018-09-23T15:47:47.119Z,1.20
2018-09-23T15:50:16.720Z,1.37
2018-09-23T15:52:45.430Z,1.80
2018-09-23T15:55:17.157Z,1.03
2018-09-23T15:57:47.690Z,0.80
2018-09-23T16:00:17.528Z,1.20
2018-09-23T16:02:47.403Z,1.10
2018-09-23T16:05:17.342Z,1.90
2018-09-23T16:07:48.115Z,1.30
2018-09-23T16:10:18.688Z,1.40
2018-09-23T16:12:49.134Z,1.40
2018-09-23T16:15:18.659Z,1.93
2018-09-23T16:17:49.038Z,1.33
2018-09-23T16:20:19.516Z,1.87
2018-09-23T16:22:50.616Z,1.60
2018-09-23T16:25:21.608Z,1.70
2018-09-23T16:27:52.088Z,1.43
2018-09-23T16:30:22.499Z,1.73
2018-09-23T16:32:52.997Z,1.40
2018-09-23T16:35:24.160Z,2.13
2018-09-23T16:37:54.319Z,1.50
2018-09-23T16:40:23.225Z,1.30
2018-09-23T16:42:55.572Z,1.93
2018-09-23T16:45:24.622Z,1.30
2018-09-23T16:47:53.191Z,1.33
2018-09-23T16:50:22.012Z,1.07
2018-09-23T16:52:50.555Z,1.40
2018-09-23T16:55:20.139Z,1.83
2018-09-23T16:57:49.296Z,1.90
2018-09-23T17:00:18.093Z,1.33
2018-09-23T17:02:46.805Z,1.63
2018-09-23T17:05:15.935Z,1.57
2018-09-23T17:07:44.829Z,1.60
2018-09-23T17:10:13.458Z,1.43
2018-09-23T17:12:43.563Z,1.43
2018-09-23T17:15:13.971Z,2.70
2018-09-23T17:17:46.033Z,2.40
2018-09-23T17:20:16.583Z,2.70
2018-09-23T17:22:50.544Z,1.53
2018-09-23T17:25:20.897Z,2.37
2018-09-23T17:27:53.434Z,1.37
2018-09-23T17:30:24.503Z,2.07
2018-09-23T17:32:54.887Z,2.00
2018-09-23T17:35:24.951Z,1.67
2018-09-23T17:37:53.806Z,1.77
2018-09-23T17:40:22.335Z,3.00
2018-09-23T17:42:50.862Z,1.50
2018-09-23T17:45:19.589Z,2.20
2018-09-23T17:47:48.292Z,2.57
2018-09-23T17:50:16.907Z,3.27
2018-09-23T17:52:45.424Z,2.00
2018-09-23T17:55:13.942Z,2.17
2018-09-23T17:57:42.506Z,3.37
2018-09-23T18:00:11.099Z,4.00
2018-09-23T18:02:40.067Z,1.90
2018-09-23T18:05:08.640Z,3.67
2018-09-23T18:07:37.422Z,2.33
2018-09-23T18:10:06.191Z,3.37
2018-09-23T18:12:34.753Z,4.33
2018-09-23T18:15:03.532Z,2.33
2018-09-23T18:17:32.375Z,5.00
2018-09-23T18:20:01.005Z,2.10
2018-09-23T18:22:29.581Z,2.30
2018-09-23T18:24:59.160Z,4.93
2018-09-23T18:27:28.015Z,4.00
2018-09-23T18:29:57.138Z,2.40
2018-09-23T18:32:25.674Z,3.93
2018-09-23T18:34:55.132Z,2.53
2018-09-23T18:37:25.709Z,2.40
2018-09-23T18:39:56.647Z,2.27
2018-09-23T18:42:25.998Z,2.33
2018-09-23T18:44:54.708Z,3.20
2018-09-23T18:47:23.292Z,3.03
2018-09-23T18:49:51.988Z,3.77
2018-09-23T18:52:21.740Z,3.77
2018-09-23T18:54:57.011Z,2.50
2018-09-23T18:57:28.114Z,2.03
2018-09-23T18:59:58.549Z,4.27
2018-09-23T19:02:28.509Z,3.40
2018-09-23T19:04:57.099Z,6.17
2018-09-23T19:07:26.584Z,2.60
2018-09-23T19:09:56.271Z,4.53
2018-09-23T19:12:27.177Z,5.03
2018-09-23T19:14:58.353Z,3.37
2018-09-23T19:17:29.665Z,3.30
2018-09-23T19:20:05.645Z,3.60
2018-09-23T19:22:41.894Z,3.20
2018-09-23T19:25:12.448Z,2.53
2018-09-23T19:27:44.325Z,2.77
2018-09-23T19:30:15.013Z,3.07
2018-09-23T19:32:46.270Z,3.07
2018-09-23T19:35:17.227Z,2.10
2018-09-23T19:37:47.599Z,4.10
2018-09-23T19:40:18.906Z,2.40
2018-09-23T19:42:49.467Z,2.37
2018-09-23T19:45:19.213Z,1.97
2018-09-23T19:47:49.131Z,2.10
2018-09-23T19:50:18.898Z,2.10
2018-09-23T19:52:49.095Z,1.17
2018-09-23T19:55:18.199Z,2.40
2018-09-23T19:57:47.081Z,1.67
2018-09-23T20:00:17.871Z,2.77
2018-09-23T20:02:47.635Z,1.60
2018-09-23T20:05:16.944Z,2.43
2018-09-23T20:07:46.707Z,2.77
2018-09-23T20:10:16.662Z,3.27
2018-09-23T20:12:46.545Z,2.47
2018-09-23T20:15:18.731Z,2.87
2018-09-23T20:17:49.137Z,4.00
2018-09-23T20:20:18.747Z,6.60
2018-09-23T20:22:49.037Z,5.10
2018-09-23T20:25:17.664Z,3.47
2018-09-23T20:27:47.220Z,5.33
2018-09-23T20:30:16.565Z,4.73
2018-09-23T20:32:46.695Z,2.57
2018-09-23T20:35:16.316Z,2.27
2018-09-23T20:37:46.281Z,4.20
2018-09-23T20:40:14.881Z,4.57
2018-09-23T20:42:44.104Z,2.83
2018-09-23T20:45:14.246Z,2.53
2018-09-23T20:47:43.655Z,2.97
2018-09-23T20:50:13.614Z,4.40
2018-09-23T20:52:42.263Z,2.53
2018-09-23T20:55:12.983Z,5.00
2018-09-23T20:57:41.973Z,3.23
2018-09-23T21:00:10.422Z,1.23
2018-09-23T21:02:39.658Z,2.20
2018-09-23T21:05:08.670Z,3.17
2018-09-23T21:07:37.313Z,2.90
2018-09-23T21:10:06.803Z,4.70
2018-09-23T21:12:35.284Z,2.83
2018-09-23T21:15:04.334Z,5.70
2018-09-23T21:17:34.531Z,2.63
2018-09-23T21:20:03.568Z,2.83
2018-09-23T21:22:33.519Z,3.60
2018-09-23T21:25:02.227Z,3.40
2018-09-23T21:27:31.600Z,4.23
2018-09-23T21:30:00.187Z,3.23
2018-09-23T21:32:29.342Z,3.50
2018-09-23T21:34:57.883Z,5.20
2018-09-23T21:37:26.431Z,6.97
2018-09-23T21:39:55.611Z,4.30
2018-09-23T21:42:25.294Z,6.73
2018-09-23T21:44:55.779Z,4.80
2018-09-23T21:47:24.638Z,5.17
2018-09-23T21:49:53.169Z,4.60
2018-09-23T21:52:22.050Z,5.60
2018-09-23T21:54:50.986Z,5.03
2018-09-23T21:57:19.446Z,5.90
2018-09-23T21:59:48.497Z,4.57
2018-09-23T22:02:19.027Z,7.93
2018-09-23T22:04:47.578Z,7.87
2018-09-23T22:07:16.043Z,4.83
2018-09-23T22:09:44.854Z,4.07
2018-09-23T22:12:13.513Z,5.77
2018-09-23T22:14:42.849Z,7.70
2018-09-23T22:17:12.473Z,7.63
2018-09-23T22:19:41.611Z,7.23
2018-09-23T22:22:10.706Z,10.13
2018-09-23T22:24:39.868Z,6.13
2018-09-23T22:27:08.446Z,4.57
2018-09-23T22:29:36.980Z,7.10
2018-09-23T22:32:05.801Z,8.33
2018-09-23T22:34:34.403Z,6.03
2018-09-23T22:37:02.929Z,4.43
2018-09-23T22:39:31.548Z,7.83
2018-09-23T22:42:00.114Z,3.97
2018-09-23T22:44:28.722Z,5.10
2018-09-23T22:46:57.791Z,6.37
2018-09-23T22:49:26.713Z,7.93
2018-09-23T22:51:56.710Z,5.27
2018-09-23T22:54:26.831Z,5.83
2018-09-23T22:56:55.352Z,6.03
2018-09-23T22:59:25.323Z,8.20
2018-09-23T23:01:53.896Z,8.90
2018-09-23T23:04:22.461Z,4.67
2018-09-23T23:06:51.183Z,5.03
2018-09-23T23:09:19.785Z,6.00
2018-09-23T23:11:48.316Z,6.57
2018-09-23T23:14:16.856Z,4.70
2018-09-23T23:16:45.408Z,8.37
2018-09-23T23:19:14.224Z,6.73
2018-09-23T23:21:42.935Z,8.43
2018-09-23T23:24:11.912Z,5.67
2018-09-23T23:26:41.016Z,3.83
2018-09-23T23:29:09.686Z,5.40
2018-09-23T23:31:38.308Z,8.67
2018-09-23T23:34:07.179Z,7.93
2018-09-23T23:36:35.808Z,11.07
2018-09-23T23:39:06.126Z,3.37
2018-09-23T23:41:34.742Z,4.87
2018-09-23T23:44:03.268Z,7.47
2018-09-23T23:46:32.620Z,5.57
2018-09-23T23:49:01.391Z,3.93
2018-09-23T23:51:29.975Z,4.27
2018-09-23T23:53:59.179Z,5.20
2018-09-23T23:56:29.031Z,6.10
2018-09-23T23:58:58.763Z,4.47
